Aviation Digital Data Service (ADDS)

Output produced by METARs form (0952 UTC 26 November 2014)
found at http://aviationweather.gov/adds/metars/
 
KBTV 260522Z 2606/2706 VRB06KT P6SM OVC040 
     FM260900 00000KT P6SM FEW040 OVC150 
     FM261800 VRB03KT 1 1/2SM -SN BR OVC015 
     FM270000 35007KT 1 1/2SM -SN BR OVC008 
     FM270500 34005KT P6SM OVC008